createdAt,value
2018-10-12T00:01:05.250Z,1010.58
2018-10-12T00:02:14.940Z,1010.58
2018-10-12T00:03:24.604Z,1010.58
2018-10-12T00:04:34.031Z,1010.59
2018-10-12T00:05:43.474Z,1010.58
2018-10-12T00:06:52.905Z,1010.57
2018-10-12T00:08:02.182Z,1010.59
2018-10-12T00:09:11.356Z,1010.58
2018-10-12T00:10:21.296Z,1010.58
2018-10-12T00:11:30.702Z,1010.58
2018-10-12T00:12:39.612Z,1010.57
2018-10-12T00:13:49.282Z,1010.53
2018-10-12T00:14:58.738Z,1010.56
2018-10-12T00:16:08.468Z,1010.58
2018-10-12T00:17:17.773Z,1010.6
2018-10-12T00:18:26.961Z,1010.59
2018-10-12T00:19:36.658Z,1010.62
2018-10-12T00:20:46.069Z,1010.65
2018-10-12T00:21:55.504Z,1010.69
2018-10-12T00:23:05.435Z,1010.71
2018-10-12T00:24:14.610Z,1010.78
2018-10-12T00:25:23.786Z,1010.8
2018-10-12T00:26:32.954Z,1010.84
2018-10-12T00:27:42.372Z,1010.87
2018-10-12T00:28:52.340Z,1010.84
2018-10-12T00:30:02.033Z,1010.85
2018-10-12T00:31:11.984Z,1010.9
2018-10-12T00:32:21.159Z,1010.92
2018-10-12T00:33:30.835Z,1010.96
2018-10-12T00:34:40.262Z,1010.97
2018-10-12T00:35:49.451Z,1010.96
2018-10-12T00:36:58.887Z,1010.96
2018-10-12T00:38:08.566Z,1010.98
2018-10-12T00:39:17.724Z,1011
2018-10-12T00:40:27.873Z,1011.02
2018-10-12T00:41:37.808Z,1011.03
2018-10-12T00:42:47.001Z,1011.03
2018-10-12T00:43:55.905Z,1011.02
2018-10-12T00:45:05.577Z,1010.97
2018-10-12T00:46:15.038Z,1010.99
2018-10-12T00:47:24.466Z,1011.04
2018-10-12T00:48:33.638Z,1011.06
2018-10-12T00:49:43.573Z,1011.09
2018-10-12T00:50:53.298Z,1011.02
2018-10-12T00:52:02.966Z,1011.05
2018-10-12T00:53:12.511Z,1011.03
2018-10-12T00:54:21.938Z,1011.07
2018-10-12T00:55:31.365Z,1011.13
2018-10-12T00:56:40.507Z,1011.17
2018-10-12T00:57:49.663Z,1011.2
2018-10-12T00:58:58.829Z,1011.19
2018-10-12T01:00:08.001Z,1011.21
2018-10-12T01:01:17.414Z,1011.19
2018-10-12T01:02:26.307Z,1011.24
2018-10-12T01:03:36.014Z,1011.21
2018-10-12T01:04:45.440Z,1011.12
2018-10-12T01:05:54.602Z,1011.14
2018-10-12T01:07:04.279Z,1011.14
2018-10-12T01:08:13.993Z,1011.13
2018-10-12T01:09:23.169Z,1011.17
2018-10-12T01:10:32.846Z,1011.18
2018-10-12T01:11:41.740Z,1011.2
2018-10-12T01:12:50.644Z,1011.18
2018-10-12T01:13:59.820Z,1011.19
2018-10-12T01:15:09.500Z,1011.15
2018-10-12T01:16:19.252Z,1011.11
2018-10-12T01:17:28.163Z,1011.15
2018-10-12T01:18:37.563Z,1011.14
2018-10-12T01:19:46.730Z,1011.23
2018-10-12T01:20:56.509Z,1011.19
2018-10-12T01:22:05.414Z,1011.26
2018-10-12T01:23:15.356Z,1011.23
2018-10-12T01:24:24.828Z,1011.2
2018-10-12T01:25:34.247Z,1011.23
2018-10-12T01:26:43.665Z,1011.25
2018-10-12T01:27:53.093Z,1011.22
2018-10-12T01:29:02.503Z,1011.19
2018-10-12T01:30:11.592Z,1011.13
2018-10-12T01:31:21.324Z,1011.12
2018-10-12T01:32:30.749Z,1011.09
2018-10-12T01:33:40.452Z,1011.08
2018-10-12T01:34:50.134Z,1011.03
2018-10-12T01:36:00.064Z,1011.04
2018-10-12T01:37:09.306Z,1011.04
2018-10-12T01:38:19.241Z,1011.04
2018-10-12T01:39:28.951Z,1011
2018-10-12T01:40:38.377Z,1011.06
2018-10-12T01:41:47.784Z,1011.05
2018-10-12T01:42:57.485Z,1011.04
2018-10-12T01:44:07.168Z,1011.09
2018-10-12T01:45:16.336Z,1011.05
2018-10-12T01:46:25.232Z,1011.07
2018-10-12T01:47:34.925Z,1011.06
2018-10-12T01:48:44.357Z,1011.07
2018-10-12T01:49:53.779Z,1011.05
2018-10-12T01:51:03.204Z,1011.05
2018-10-12T01:52:12.675Z,1011.07
2018-10-12T01:53:22.355Z,1011.13
2018-10-12T01:54:31.838Z,1011.19
2018-10-12T01:55:40.753Z,1011.27
2018-10-12T01:56:50.428Z,1011.25
2018-10-12T01:57:59.841Z,1011.26
2018-10-12T01:59:09.036Z,1011.28
2018-10-12T02:00:18.278Z,1011.28
2018-10-12T02:01:27.437Z,1011.3
2018-10-12T02:02:37.122Z,1011.36
2018-10-12T02:03:46.543Z,1011.37
2018-10-12T02:04:56.229Z,1011.37
2018-10-12T02:06:06.158Z,1011.31
2018-10-12T02:07:15.848Z,1011.37
2018-10-12T02:08:25.785Z,1011.38
2018-10-12T02:09:35.448Z,1011.31
2018-10-12T02:10:44.674Z,1011.38
2018-10-12T02:11:54.377Z,1011.38
2018-10-12T02:13:04.054Z,1011.44
2018-10-12T02:14:13.781Z,1011.41
2018-10-12T02:15:23.205Z,1011.41
2018-10-12T02:16:32.622Z,1011.39
2018-10-12T02:17:42.051Z,1011.41
2018-10-12T02:18:51.736Z,1011.38
2018-10-12T02:20:00.902Z,1011.44
2018-10-12T02:21:10.063Z,1011.4
2018-10-12T02:22:19.751Z,1011.44
2018-10-12T02:23:29.447Z,1011.43
2018-10-12T02:24:38.876Z,1011.45
2018-10-12T02:25:48.548Z,1011.45
2018-10-12T02:26:57.967Z,1011.46
2018-10-12T02:28:07.392Z,1011.44
2018-10-12T02:29:17.110Z,1011.46
2018-10-12T02:30:26.291Z,1011.43
2018-10-12T02:31:35.473Z,1011.47
2018-10-12T02:32:44.912Z,1011.49
2018-10-12T02:33:54.331Z,1011.5
2018-10-12T02:35:03.753Z,1011.5
2018-10-12T02:36:13.444Z,1011.53
2018-10-12T02:37:22.563Z,1011.5
2018-10-12T02:38:31.994Z,1011.52
2018-10-12T02:39:41.157Z,1011.5
2018-10-12T02:40:50.829Z,1011.54
2018-10-12T02:42:00.769Z,1011.56
2018-10-12T02:43:10.212Z,1011.56
2018-10-12T02:44:19.919Z,1011.54
2018-10-12T02:45:29.375Z,1011.59
2018-10-12T02:46:39.310Z,1011.6
2018-10-12T02:47:49.002Z,1011.61
2018-10-12T02:48:58.194Z,1011.64
2018-10-12T02:50:07.623Z,1011.65
2018-10-12T02:51:17.297Z,1011.71
2018-10-12T02:52:26.459Z,1011.73
2018-10-12T02:53:36.140Z,1011.73
2018-10-12T02:54:45.308Z,1011.72
2018-10-12T02:55:55.299Z,1011.7
2018-10-12T02:57:04.726Z,1011.71
2018-10-12T02:58:14.150Z,1011.72
2018-10-12T02:59:23.630Z,1011.71
2018-10-12T03:00:32.544Z,1011.72
2018-10-12T03:01:42.225Z,1011.71
2018-10-12T03:02:51.901Z,1011.77
2018-10-12T03:04:01.673Z,1011.8
2018-10-12T03:05:10.922Z,1011.8
2018-10-12T03:06:20.348Z,1011.84
2018-10-12T03:07:30.032Z,1011.92
2018-10-12T03:08:39.730Z,1011.99
2018-10-12T03:09:48.954Z,1012.02
2018-10-12T03:10:58.449Z,1012.05
2018-10-12T03:12:07.871Z,1012.05
2018-10-12T03:13:17.556Z,1012.06
2018-10-12T03:14:27.233Z,1012.04
2018-10-12T03:15:36.913Z,1012.03
2018-10-12T03:16:46.866Z,1012.08
2018-10-12T03:17:56.847Z,1012.05
2018-10-12T03:19:06.523Z,1012.07
2018-10-12T03:20:15.940Z,1012.12
2018-10-12T03:21:25.647Z,1012.11
2018-10-12T03:22:35.589Z,1012.1
2018-10-12T03:23:45.270Z,1012.11
2018-10-12T03:24:54.444Z,1012.07
2018-10-12T03:26:03.612Z,1012.1
2018-10-12T03:27:13.047Z,1012.09
2018-10-12T03:28:22.366Z,1012.13
2018-10-12T03:29:31.822Z,1012.11
2018-10-12T03:30:41.241Z,1012.13
2018-10-12T03:31:51.191Z,1012.13
2018-10-12T03:33:00.678Z,1012.2
2018-10-12T03:34:10.363Z,1012.24
2018-10-12T03:35:19.914Z,1012.24
2018-10-12T03:36:28.851Z,1012.29
2018-10-12T03:37:38.076Z,1012.28
2018-10-12T03:38:47.270Z,1012.29
2018-10-12T03:39:56.477Z,1012.29
2018-10-12T03:41:05.697Z,1012.3
2018-10-12T03:42:15.124Z,1012.26
2018-10-12T03:43:24.600Z,1012.25
2018-10-12T03:44:34.045Z,1012.29
2018-10-12T03:45:43.477Z,1012.32
2018-10-12T03:46:53.169Z,1012.28
2018-10-12T03:48:02.592Z,1012.29
2018-10-12T03:49:12.016Z,1012.28
2018-10-12T03:50:21.187Z,1012.32
2018-10-12T03:51:30.877Z,1012.29
2018-10-12T03:52:40.050Z,1012.32
2018-10-12T03:53:50.003Z,1012.35
2018-10-12T03:54:59.165Z,1012.35
2018-10-12T03:56:08.901Z,1012.32
2018-10-12T03:57:18.319Z,1012.35
2018-10-12T03:58:28.132Z,1012.35
2018-10-12T03:59:37.314Z,1012.39
2018-10-12T04:00:46.735Z,1012.41
2018-10-12T04:01:55.948Z,1012.41
2018-10-12T04:03:05.637Z,1012.41
2018-10-12T04:04:15.396Z,1012.42
2018-10-12T04:05:25.846Z,1012.43
2018-10-12T04:06:35.119Z,1012.42
2018-10-12T04:07:45.064Z,1012.4
2018-10-12T04:08:53.963Z,1012.52
2018-10-12T04:10:03.399Z,1012.58
2018-10-12T04:11:13.104Z,1012.58
2018-10-12T04:12:23.140Z,1012.59
2018-10-12T04:13:32.809Z,1012.63
2018-10-12T04:14:42.509Z,1012.65
2018-10-12T04:15:52.194Z,1012.62
2018-10-12T04:17:02.182Z,1012.59
2018-10-12T04:18:11.348Z,1012.64
2018-10-12T04:19:20.791Z,1012.65
2018-10-12T04:20:30.210Z,1012.7
2018-10-12T04:21:39.894Z,1012.73
2018-10-12T04:22:49.312Z,1012.76
2018-10-12T04:23:58.974Z,1012.72
2018-10-12T04:25:08.195Z,1012.8
2018-10-12T04:26:17.624Z,1012.76
2018-10-12T04:27:27.074Z,1012.74
2018-10-12T04:28:36.504Z,1012.74
2018-10-12T04:29:46.220Z,1012.77
2018-10-12T04:30:55.646Z,1012.76
2018-10-12T04:32:05.338Z,1012.79
2018-10-12T04:33:14.254Z,1012.83
2018-10-12T04:34:24.264Z,1012.83
2018-10-12T04:35:33.690Z,1012.89
2018-10-12T04:36:43.165Z,1012.88
2018-10-12T04:37:52.869Z,1012.88
2018-10-12T04:39:02.293Z,1012.86
2018-10-12T04:40:11.989Z,1012.9
2018-10-12T04:41:21.860Z,1012.96
2018-10-12T04:42:31.872Z,1012.97
2018-10-12T04:43:41.567Z,1013
2018-10-12T04:44:51.595Z,1013.08
2018-10-12T04:46:01.016Z,1013.05
2018-10-12T04:47:10.747Z,1013.08
2018-10-12T04:48:20.726Z,1013.09
2018-10-12T04:49:30.146Z,1013.15
2018-10-12T04:50:39.326Z,1013.1
2018-10-12T04:51:49.008Z,1013.11
2018-10-12T04:52:58.437Z,1013.13
2018-10-12T04:54:07.912Z,1013.15
2018-10-12T04:55:17.580Z,1013.19
2018-10-12T04:56:27.031Z,1013.2
2018-10-12T04:57:36.227Z,1013.27
2018-10-12T04:58:45.768Z,1013.28
2018-10-12T04:59:55.457Z,1013.27
2018-10-12T05:01:05.245Z,1013.21
2018-10-12T05:02:14.652Z,1013.2
2018-10-12T05:03:24.613Z,1013.2
2018-10-12T05:04:34.023Z,1013.26
2018-10-12T05:05:43.431Z,1013.31
2018-10-12T05:06:52.848Z,1013.35
2018-10-12T05:08:02.009Z,1013.37
2018-10-12T05:09:11.478Z,1013.42
2018-10-12T05:10:20.652Z,1013.41
2018-10-12T05:11:30.327Z,1013.37
2018-10-12T05:12:40.005Z,1013.33
2018-10-12T05:13:48.895Z,1013.37
2018-10-12T05:14:58.059Z,1013.37
2018-10-12T05:16:06.967Z,1013.34
2018-10-12T05:17:16.171Z,1013.36
2018-10-12T05:18:25.900Z,1013.36
2018-10-12T05:19:35.685Z,1013.34
2018-10-12T05:20:45.105Z,1013.37
2018-10-12T05:21:55.004Z,1013.37
2018-10-12T05:23:05.480Z,1013.43
2018-10-12T05:24:14.928Z,1013.43
2018-10-12T05:25:24.133Z,1013.46
2018-10-12T05:26:33.318Z,1013.5
2018-10-12T05:27:43.273Z,1013.5
2018-10-12T05:28:52.454Z,1013.52
2018-10-12T05:30:02.332Z,1013.52
2018-10-12T05:31:12.461Z,1013.55
2018-10-12T05:32:21.682Z,1013.55
2018-10-12T05:33:31.354Z,1013.56
2018-10-12T05:34:40.508Z,1013.61
2018-10-12T05:35:49.667Z,1013.63
2018-10-12T05:36:59.280Z,1013.63
2018-10-12T05:38:08.955Z,1013.68
2018-10-12T05:39:18.379Z,1013.69
2018-10-12T05:40:27.045Z,1013.71
2018-10-12T05:41:36.473Z,1013.7
2018-10-12T05:42:45.718Z,1013.72
2018-10-12T05:43:56.299Z,1013.76
2018-10-12T05:45:05.992Z,1013.78
2018-10-12T05:46:15.152Z,1013.79
2018-10-12T05:47:24.583Z,1013.79
2018-10-12T05:48:34.004Z,1013.78
2018-10-12T05:49:44.186Z,1013.8
2018-10-12T05:50:53.353Z,1013.79
2018-10-12T05:52:02.773Z,1013.8
2018-10-12T05:53:12.583Z,1013.83
2018-10-12T05:54:22.260Z,1013.78
2018-10-12T05:55:31.672Z,1013.81
2018-10-12T05:56:41.526Z,1013.82
2018-10-12T05:57:50.954Z,1013.8
2018-10-12T05:59:00.403Z,1013.85
2018-10-12T06:00:10.083Z,1013.81
2018-10-12T06:01:19.269Z,1013.81
2018-10-12T06:02:29.489Z,1013.89
2018-10-12T06:03:38.693Z,1013.85
2018-10-12T06:04:48.444Z,1013.85
2018-10-12T06:05:58.139Z,1013.86
2018-10-12T06:07:08.111Z,1013.9
2018-10-12T06:08:17.834Z,1013.88
2018-10-12T06:09:27.287Z,1013.92
2018-10-12T06:10:37.981Z,1013.9
2018-10-12T06:11:47.427Z,1013.93
2018-10-12T06:12:57.282Z,1013.91
2018-10-12T06:14:06.463Z,1013.94
2018-10-12T06:15:16.220Z,1013.94
2018-10-12T06:16:25.839Z,1013.95
2018-10-12T06:17:35.596Z,1013.94
2018-10-12T06:18:45.279Z,1013.97
2018-10-12T06:19:54.969Z,1013.96
2018-10-12T06:21:04.387Z,1013.95
2018-10-12T06:22:13.544Z,1013.96
2018-10-12T06:23:22.716Z,1013.94
2018-10-12T06:24:32.026Z,1013.94
2018-10-12T06:25:41.458Z,1013.99
2018-10-12T06:26:50.463Z,1014.01
2018-10-12T06:28:00.675Z,1014.12
2018-10-12T06:29:10.108Z,1014.19
2018-10-12T06:30:19.279Z,1014.29
2018-10-12T06:31:28.451Z,1014.31
2018-10-12T06:32:37.872Z,1014.35
2018-10-12T06:33:47.811Z,1014.38
2018-10-12T06:34:57.756Z,1014.39
2018-10-12T06:36:06.923Z,1014.41
2018-10-12T06:37:16.968Z,1014.48
2018-10-12T06:38:26.145Z,1014.48
2018-10-12T06:39:35.569Z,1014.56
2018-10-12T06:40:45.313Z,1014.58
2018-10-12T06:41:55.758Z,1014.61
2018-10-12T06:43:04.872Z,1014.61
2018-10-12T06:44:14.635Z,1014.63
2018-10-12T06:45:24.393Z,1014.62
2018-10-12T06:46:34.117Z,1014.65
2018-10-12T06:47:44.745Z,1014.65
2018-10-12T06:48:54.706Z,1014.71
2018-10-12T06:50:04.389Z,1014.73
2018-10-12T06:51:13.812Z,1014.73
2018-10-12T06:52:23.504Z,1014.78
2018-10-12T06:53:32.933Z,1014.86
2018-10-12T06:54:42.420Z,1014.89
2018-10-12T06:55:51.337Z,1014.86
2018-10-12T06:57:00.547Z,1014.84
2018-10-12T06:58:10.038Z,1014.81
2018-10-12T06:59:19.200Z,1014.81
2018-10-12T07:00:28.626Z,1014.85
2018-10-12T07:01:37.808Z,1014.88
2018-10-12T07:02:47.562Z,1014.9
2018-10-12T07:03:57.275Z,1014.96
2018-10-12T07:05:06.754Z,1015.03
2018-10-12T07:06:15.675Z,1015.05
2018-10-12T07:07:25.390Z,1014.97
2018-10-12T07:08:34.314Z,1014.97
2018-10-12T07:09:43.989Z,1014.98
2018-10-12T07:10:53.696Z,1015.08
2018-10-12T07:12:03.718Z,1015.03
2018-10-12T07:13:12.883Z,1015.01
2018-10-12T07:14:22.363Z,1015.03
2018-10-12T07:15:31.660Z,1014.99
2018-10-12T07:16:41.099Z,1015.07
2018-10-12T07:17:50.513Z,1015.03
2018-10-12T07:18:59.686Z,1015.09
2018-10-12T07:20:08.896Z,1015.13
2018-10-12T07:21:18.753Z,1015.13
2018-10-12T07:22:28.424Z,1015.1
2018-10-12T07:23:38.367Z,1015.12
2018-10-12T07:24:47.561Z,1015.17
2018-10-12T07:25:56.996Z,1015.19
2018-10-12T07:27:07.165Z,1015.25
2018-10-12T07:28:17.166Z,1015.24
2018-10-12T07:29:26.328Z,1015.21
2018-10-12T07:30:35.782Z,1015.18
2018-10-12T07:31:45.212Z,1015.25
2018-10-12T07:32:54.506Z,1015.24
2018-10-12T07:34:04.204Z,1015.28
2018-10-12T07:35:13.631Z,1015.29
2018-10-12T07:36:22.296Z,1015.31
2018-10-12T07:37:31.015Z,1015.3
2018-10-12T07:38:40.748Z,1015.37
2018-10-12T07:39:50.427Z,1015.37
2018-10-12T07:40:59.863Z,1015.37
2018-10-12T07:42:09.055Z,1015.37
2018-10-12T07:43:19.306Z,1015.41
2018-10-12T07:44:29.044Z,1015.39
2018-10-12T07:45:38.489Z,1015.42
2018-10-12T07:46:48.197Z,1015.47
2018-10-12T07:47:57.451Z,1015.5
2018-10-12T07:49:07.094Z,1015.51
2018-10-12T07:50:16.265Z,1015.55
2018-10-12T07:51:25.950Z,1015.54
2018-10-12T07:52:35.803Z,1015.53
2018-10-12T07:53:45.315Z,1015.56
2018-10-12T07:54:55.374Z,1015.59
2018-10-12T07:56:04.812Z,1015.62
2018-10-12T07:57:14.004Z,1015.62
2018-10-12T07:58:23.462Z,1015.62
2018-10-12T07:59:32.962Z,1015.59
2018-10-12T08:00:42.852Z,1015.57
2018-10-12T08:01:52.769Z,1015.55
2018-10-12T08:03:02.473Z,1015.56
2018-10-12T08:04:11.909Z,1015.62
2018-10-12T08:05:21.674Z,1015.63
2018-10-12T08:06:31.718Z,1015.64
2018-10-12T08:07:42.128Z,1015.65
2018-10-12T08:08:51.847Z,1015.67
2018-10-12T08:10:01.596Z,1015.65
2018-10-12T08:11:11.309Z,1015.66
2018-10-12T08:12:20.760Z,1015.61
2018-10-12T08:13:30.477Z,1015.61
2018-10-12T08:14:40.772Z,1015.62
2018-10-12T08:15:50.458Z,1015.6
2018-10-12T08:16:59.421Z,1015.56
2018-10-12T08:18:08.902Z,1015.61
2018-10-12T08:19:18.626Z,1015.64
2018-10-12T08:20:27.704Z,1015.63
2018-10-12T08:21:36.944Z,1015.67
2018-10-12T08:22:46.701Z,1015.69
2018-10-12T08:23:56.141Z,1015.66
2018-10-12T08:25:06.095Z,1015.71
2018-10-12T08:26:15.592Z,1015.71
2018-10-12T08:27:25.043Z,1015.74
2018-10-12T08:28:35.032Z,1015.77
2018-10-12T08:29:44.204Z,1015.74
2018-10-12T08:30:53.132Z,1015.76
2018-10-12T08:32:02.845Z,1015.76
2018-10-12T08:33:12.026Z,1015.8
2018-10-12T08:34:21.228Z,1015.81
2018-10-12T08:35:30.420Z,1015.78
2018-10-12T08:36:40.187Z,1015.72
2018-10-12T08:37:49.907Z,1015.75
2018-10-12T08:38:59.602Z,1015.84
2018-10-12T08:40:09.316Z,1015.9
2018-10-12T08:41:18.226Z,1015.92
2018-10-12T08:42:27.666Z,1015.92
2018-10-12T08:43:37.111Z,1015.9
2018-10-12T08:44:46.558Z,1015.9
2018-10-12T08:45:55.475Z,1015.89
2018-10-12T08:47:04.910Z,1015.9
2018-10-12T08:48:14.357Z,1015.93
2018-10-12T08:49:23.309Z,1015.94
2018-10-12T08:50:33.023Z,1015.94
2018-10-12T08:51:42.483Z,1015.91
2018-10-12T08:52:51.936Z,1015.93
2018-10-12T08:54:01.364Z,1015.93
2018-10-12T08:55:10.822Z,1015.95
2018-10-12T08:56:19.996Z,1015.97
2018-10-12T08:57:29.690Z,1015.94
2018-10-12T08:58:39.469Z,1015.97
2018-10-12T08:59:49.161Z,1015.96
2018-10-12T09:00:58.341Z,1015.95
2018-10-12T09:02:08.455Z,1015.96
2018-10-12T09:03:17.996Z,1015.99
2018-10-12T09:04:27.453Z,1015.94
2018-10-12T09:05:37.160Z,1016.01
2018-10-12T09:06:46.872Z,1015.99
2018-10-12T09:07:56.321Z,1016.07
2018-10-12T09:09:05.482Z,1015.99
2018-10-12T09:10:15.225Z,1016.06
2018-10-12T09:11:25.216Z,1016.06
2018-10-12T09:12:35.338Z,1016.03
2018-10-12T09:13:45.022Z,1016.02
2018-10-12T09:14:53.950Z,1016.04
2018-10-12T09:16:02.618Z,1016.02
2018-10-12T09:17:12.192Z,1016.05
2018-10-12T09:18:21.638Z,1016.02
2018-10-12T09:19:31.165Z,1016.02
2018-10-12T09:20:40.411Z,1016.01
2018-10-12T09:21:50.646Z,1015.98
2018-10-12T09:23:00.362Z,1016.02
2018-10-12T09:24:09.542Z,1015.98
2018-10-12T09:25:18.470Z,1015.98
2018-10-12T09:26:28.149Z,1015.98
2018-10-12T09:27:37.871Z,1015.91
2018-10-12T09:28:47.552Z,1015.9
2018-10-12T09:29:57.238Z,1015.92
2018-10-12T09:31:07.327Z,1015.94
2018-10-12T09:32:16.549Z,1015.95
2018-10-12T09:33:26.012Z,1015.94
2018-10-12T09:34:35.699Z,1015.94
2018-10-12T09:35:45.175Z,1015.94
2018-10-12T09:36:54.685Z,1015.9
2018-10-12T09:38:05.300Z,1015.87
2018-10-12T09:39:15.296Z,1015.89
2018-10-12T09:40:24.721Z,1015.85
2018-10-12T09:41:34.618Z,1015.89
2018-10-12T09:42:43.282Z,1015.84
2018-10-12T09:43:52.608Z,1015.89
2018-10-12T09:45:02.313Z,1015.9
2018-10-12T09:46:12.011Z,1015.93
2018-10-12T09:47:20.934Z,1015.91
2018-10-12T09:48:30.650Z,1015.88
2018-10-12T09:49:40.102Z,1015.86
2018-10-12T09:50:49.792Z,1015.86
2018-10-12T09:51:59.151Z,1015.87
2018-10-12T09:53:08.839Z,1015.85
2018-10-12T09:54:18.268Z,1015.84
2018-10-12T09:55:27.705Z,1015.81
2018-10-12T09:56:37.704Z,1015.78
2018-10-12T09:57:47.164Z,1015.8
2018-10-12T09:58:56.351Z,1015.81
2018-10-12T10:00:06.047Z,1015.79
2018-10-12T10:01:15.756Z,1015.81
2018-10-12T10:02:25.709Z,1015.83
2018-10-12T10:03:35.308Z,1015.81
2018-10-12T10:04:45.243Z,1015.79
2018-10-12T10:05:54.749Z,1015.8
2018-10-12T10:07:04.452Z,1015.74
2018-10-12T10:08:14.307Z,1015.76
2018-10-12T10:09:25.730Z,1015.77
2018-10-12T10:10:35.148Z,1015.7
2018-10-12T10:11:44.334Z,1015.75
2018-10-12T10:12:53.238Z,1015.71
2018-10-12T10:14:02.683Z,1015.71
2018-10-12T10:15:12.122Z,1015.71
2018-10-12T10:16:21.942Z,1015.7
2018-10-12T10:17:31.635Z,1015.67
2018-10-12T10:18:41.581Z,1015.66
2018-10-12T10:19:51.268Z,1015.59
2018-10-12T10:21:00.489Z,1015.56
2018-10-12T10:22:09.507Z,1015.55
2018-10-12T10:23:19.308Z,1015.53
2018-10-12T10:24:28.774Z,1015.44
2018-10-12T10:25:38.459Z,1015.47
2018-10-12T10:26:48.844Z,1015.47
2018-10-12T10:27:58.886Z,1015.42
2018-10-12T10:29:08.424Z,1015.41
2018-10-12T10:30:18.812Z,1015.42
2018-10-12T10:31:28.668Z,1015.44
2018-10-12T10:32:38.122Z,1015.42
2018-10-12T10:33:47.553Z,1015.39
2018-10-12T10:34:57.310Z,1015.41
2018-10-12T10:36:06.768Z,1015.45
2018-10-12T10:37:16.210Z,1015.38
2018-10-12T10:38:25.115Z,1015.4
2018-10-12T10:39:34.792Z,1015.37
2018-10-12T10:40:43.986Z,1015.43
2018-10-12T10:41:53.670Z,1015.41
2018-10-12T10:43:02.590Z,1015.34
2018-10-12T10:44:12.016Z,1015.29
2018-10-12T10:45:21.706Z,1015.33
2018-10-12T10:46:31.146Z,1015.33
2018-10-12T10:47:41.109Z,1015.38
2018-10-12T10:48:50.569Z,1015.36
2018-10-12T10:50:00.255Z,1015.37
2018-10-12T10:51:09.982Z,1015.33
2018-10-12T10:52:19.172Z,1015.33
2018-10-12T10:53:28.886Z,1015.27
2018-10-12T10:54:39.214Z,1015.27
2018-10-12T10:55:48.669Z,1015.24
2018-10-12T10:56:58.347Z,1015.26
2018-10-12T10:58:08.310Z,1015.22
2018-10-12T10:59:17.514Z,1015.23
2018-10-12T11:00:27.237Z,1015.22
2018-10-12T11:01:36.594Z,1015.27
2018-10-12T11:02:45.776Z,1015.28
2018-10-12T11:03:55.225Z,1015.23
2018-10-12T11:05:04.919Z,1015.2
2018-10-12T11:06:14.112Z,1015.22
2018-10-12T11:07:24.161Z,1015.21
2018-10-12T11:08:33.900Z,1015.16
2018-10-12T11:09:43.247Z,1015.14
2018-10-12T11:10:52.660Z,1015.11
2018-10-12T11:12:01.861Z,1015.1
2018-10-12T11:13:12.065Z,1015.14
2018-10-12T11:14:22.055Z,1015.13
2018-10-12T11:15:31.813Z,1015.05
2018-10-12T11:16:40.989Z,1015.05
2018-10-12T11:17:49.890Z,1015.07
2018-10-12T11:18:59.319Z,1015.09
2018-10-12T11:20:08.750Z,1015.12
2018-10-12T11:21:18.220Z,1015.13
2018-10-12T11:22:27.424Z,1015.12
2018-10-12T11:23:37.115Z,1015.11
2018-10-12T11:24:46.554Z,1015.09
2018-10-12T11:25:56.000Z,1015.09
2018-10-12T11:27:05.501Z,1015.09
2018-10-12T11:28:15.208Z,1015.12
2018-10-12T11:29:24.897Z,1015.07
2018-10-12T11:30:33.842Z,1015.11
2018-10-12T11:31:43.142Z,1015.07
2018-10-12T11:32:52.900Z,1015.02
2018-10-12T11:34:03.392Z,1015
2018-10-12T11:35:13.093Z,1015.01
2018-10-12T11:36:22.279Z,1015.04
2018-10-12T11:37:31.768Z,1015.05
2018-10-12T11:38:40.959Z,1015.05
2018-10-12T11:39:50.658Z,1015.01
2018-10-12T11:41:00.336Z,1015
2018-10-12T11:42:10.104Z,1015.04
2018-10-12T11:43:19.044Z,1015
2018-10-12T11:44:28.739Z,1015.03
2018-10-12T11:45:37.905Z,1015.07
2018-10-12T11:46:47.618Z,1015.04
2018-10-12T11:47:57.327Z,1015.07
2018-10-12T11:49:06.234Z,1015.03
2018-10-12T11:50:16.166Z,1015.05
2018-10-12T11:51:25.847Z,1014.98
2018-10-12T11:52:35.277Z,1015.04
2018-10-12T11:53:45.242Z,1014.98
2018-10-12T11:54:54.154Z,1015
2018-10-12T11:56:03.344Z,1014.95
2018-10-12T11:57:13.050Z,1015
2018-10-12T11:58:22.239Z,1014.98
2018-10-12T11:59:31.691Z,1014.99
2018-10-12T12:00:40.855Z,1014.94
2018-10-12T12:01:50.329Z,1014.92
2018-10-12T12:02:59.762Z,1014.92
2018-10-12T12:04:09.196Z,1014.96
2018-10-12T12:05:18.419Z,1014.88
2018-10-12T12:06:27.866Z,1014.9
2018-10-12T12:07:37.320Z,1014.9
2018-10-12T12:08:46.764Z,1014.88
2018-10-12T12:09:55.925Z,1014.92
2018-10-12T12:11:05.888Z,1014.91
2018-10-12T12:12:15.331Z,1014.88
2018-10-12T12:13:25.387Z,1014.91
2018-10-12T12:14:35.022Z,1014.88
2018-10-12T12:15:44.703Z,1014.94
2018-10-12T12:16:54.684Z,1014.9
2018-10-12T12:18:03.627Z,1014.88
2018-10-12T12:19:13.079Z,1014.89
2018-10-12T12:20:23.028Z,1014.87
2018-10-12T12:21:32.520Z,1014.87
2018-10-12T12:22:41.953Z,1014.87
2018-10-12T12:23:51.395Z,1014.89
2018-10-12T12:25:00.344Z,1014.84
2018-10-12T12:26:10.016Z,1014.86
2018-10-12T12:27:19.699Z,1014.82
2018-10-12T12:28:28.875Z,1014.84
2018-10-12T12:29:38.230Z,1014.81
2018-10-12T12:30:47.927Z,1014.87
2018-10-12T12:31:57.358Z,1014.85
2018-10-12T12:33:07.049Z,1014.84
2018-10-12T12:34:15.991Z,1014.87
2018-10-12T12:35:26.024Z,1014.9
2018-10-12T12:36:36.612Z,1014.93
2018-10-12T12:37:46.592Z,1014.94
2018-10-12T12:38:56.273Z,1014.87
2018-10-12T12:40:05.697Z,1014.85
2018-10-12T12:41:14.612Z,1014.88
2018-10-12T12:42:24.051Z,1014.89
2018-10-12T12:43:34.011Z,1014.89
2018-10-12T12:44:43.179Z,1014.9
2018-10-12T12:45:52.350Z,1014.89
2018-10-12T12:47:01.785Z,1014.91
2018-10-12T12:48:12.145Z,1014.89
2018-10-12T12:49:23.814Z,1014.91
2018-10-12T12:50:34.297Z,1014.9
2018-10-12T12:51:43.477Z,1014.86
2018-10-12T12:52:52.643Z,1014.89
2018-10-12T12:54:02.078Z,1014.89
2018-10-12T12:55:11.262Z,1014.93
2018-10-12T12:56:20.695Z,1014.91
2018-10-12T12:57:30.650Z,1014.91
2018-10-12T12:58:40.362Z,1014.88
2018-10-12T12:59:50.068Z,1014.92
2018-10-12T13:00:58.988Z,1014.88
2018-10-12T13:02:08.681Z,1014.92
2018-10-12T13:03:18.107Z,1014.93
2018-10-12T13:04:27.550Z,1014.95
2018-10-12T13:05:36.984Z,1014.87
2018-10-12T13:06:46.154Z,1014.9
2018-10-12T13:07:55.615Z,1014.9
2018-10-12T13:09:05.309Z,1014.91
2018-10-12T13:10:15.265Z,1014.87
2018-10-12T13:11:25.206Z,1014.83
2018-10-12T13:12:34.652Z,1014.9
2018-10-12T13:13:44.146Z,1014.89
2018-10-12T13:14:53.843Z,1014.9
2018-10-12T13:16:03.543Z,1014.9
2018-10-12T13:17:12.726Z,1014.92
2018-10-12T13:18:21.659Z,1014.94
2018-10-12T13:19:31.108Z,1014.93
2018-10-12T13:20:40.121Z,1014.93
2018-10-12T13:21:49.825Z,1014.94
2018-10-12T13:22:59.013Z,1014.93
2018-10-12T13:24:08.692Z,1014.91
2018-10-12T13:25:18.720Z,1014.95
2018-10-12T13:26:28.464Z,1014.98
2018-10-12T13:27:37.373Z,1014.97
2018-10-12T13:28:46.568Z,1015
2018-10-12T13:29:55.487Z,1015
2018-10-12T13:31:04.941Z,1015.01
2018-10-12T13:32:14.649Z,1014.99
2018-10-12T13:33:24.101Z,1014.96
2018-10-12T13:34:33.090Z,1015.01
2018-10-12T13:35:42.545Z,1015.02
2018-10-12T13:36:52.066Z,1015.06
2018-10-12T13:38:01.265Z,1015.04
2018-10-12T13:39:10.698Z,1015.05
2018-10-12T13:40:20.369Z,1015.13
2018-10-12T13:41:30.062Z,1015.14
2018-10-12T13:42:39.521Z,1015.13
2018-10-12T13:43:49.205Z,1015.21
2018-10-12T13:44:58.889Z,1015.15
2018-10-12T13:46:08.592Z,1015.21
2018-10-12T13:47:17.768Z,1015.17
2018-10-12T13:48:27.223Z,1015.2
2018-10-12T13:49:36.669Z,1015.2
2018-10-12T13:50:45.846Z,1015.18
2018-10-12T13:51:55.274Z,1015.17
2018-10-12T13:53:05.058Z,1015.19
2018-10-12T13:54:14.279Z,1015.25
2018-10-12T13:55:23.875Z,1015.25
2018-10-12T13:56:32.679Z,1015.27
2018-10-12T13:57:41.931Z,1015.23
2018-10-12T13:58:51.624Z,1015.24
2018-10-12T14:00:01.092Z,1015.19
2018-10-12T14:01:10.937Z,1015.24
2018-10-12T14:02:19.864Z,1015.24
2018-10-12T14:03:29.310Z,1015.27
2018-10-12T14:04:38.263Z,1015.24